sensor_id;sensor_type;location;lat;lon;timestamp;pressure;altitude;pressure_sealevel;temperature;humidity
52032;BME280;38044;45.148;39.604;2023-02-23T00:00:29;101216.91;;;1.60;75.81
52032;BME280;38044;45.148;39.604;2023-02-23T00:02:59;101224.28;;;1.57;75.56
52032;BME280;38044;45.148;39.604;2023-02-23T00:05:28;101220.16;;;1.62;75.59
52032;BME280;38044;45.148;39.604;2023-02-23T00:07:54;101097.69;;;0.71;75.24
52032;BME280;38044;45.148;39.604;2023-02-23T00:10:21;101216.16;;;1.52;75.60
52032;BME280;38044;45.148;39.604;2023-02-23T00:12:51;101174.34;;;1.23;75.68
52032;BME280;38044;45.148;39.604;2023-02-23T00:15:16;101190.22;;;1.29;75.35
52032;BME280;38044;45.148;39.604;2023-02-23T00:17:42;101212.34;;;1.42;75.56
52032;BME280;38044;45.148;39.604;2023-02-23T00:20:10;101196.06;;;1.38;75.49
52032;BME280;38044;45.148;39.604;2023-02-23T00:22:40;101111.47;;;0.80;75.25
52032;BME280;38044;45.148;39.604;2023-02-23T00:25:09;101211.16;;;1.63;75.48
52032;BME280;38044;45.148;39.604;2023-02-23T00:27:39;101186.66;;;1.42;75.14
52032;BME280;38044;45.148;39.604;2023-02-23T00:30:14;101193.66;;;1.62;75.19
52032;BME280;38044;45.148;39.604;2023-02-23T00:32:42;101204.69;;;1.58;75.08
52032;BME280;38044;45.148;39.604;2023-02-23T00:35:09;101214.25;;;1.60;75.06
52032;BME280;38044;45.148;39.604;2023-02-23T00:37:50;101060.63;;;0.71;74.49
52032;BME280;38044;45.148;39.604;2023-02-23T00:40:17;101193.31;;;1.51;74.97
52032;BME280;38044;45.148;39.604;2023-02-23T00:42:46;101134.06;;;1.21;74.64
52032;BME280;38044;45.148;39.604;2023-02-23T00:45:13;101201.34;;;1.70;74.84
52032;BME280;38044;45.148;39.604;2023-02-23T00:47:40;101008.75;;;0.38;74.92
52032;BME280;38044;45.148;39.604;2023-02-23T00:50:12;101186.22;;;1.45;75.32
52032;BME280;38044;45.148;39.604;2023-02-23T00:52:40;101010.75;;;0.43;74.72
52032;BME280;38044;45.148;39.604;2023-02-23T00:55:08;101173.84;;;1.39;75.17
52032;BME280;38044;45.148;39.604;2023-02-23T00:57:34;101212.00;;;1.63;75.13
52032;BME280;38044;45.148;39.604;2023-02-23T01:00:00;101172.81;;;1.40;74.89
52032;BME280;38044;45.148;39.604;2023-02-23T01:02:27;101115.25;;;0.97;75.13
52032;BME280;38044;45.148;39.604;2023-02-23T01:04:56;101220.22;;;1.55;74.89
52032;BME280;38044;45.148;39.604;2023-02-23T01:07:21;101224.59;;;1.68;74.86
52032;BME280;38044;45.148;39.604;2023-02-23T01:09:50;101029.63;;;0.53;74.73
52032;BME280;38044;45.148;39.604;2023-02-23T01:12:16;101205.88;;;1.63;75.20
52032;BME280;38044;45.148;39.604;2023-02-23T01:14:42;101219.72;;;1.65;75.26
52032;BME280;38044;45.148;39.604;2023-02-23T01:17:08;101166.16;;;1.31;74.91
52032;BME280;38044;45.148;39.604;2023-02-23T01:19:33;101218.56;;;1.61;75.14
52032;BME280;38044;45.148;39.604;2023-02-23T01:21:59;101219.81;;;1.51;75.56
52032;BME280;38044;45.148;39.604;2023-02-23T01:24:27;101132.53;;;1.06;75.42
52032;BME280;38044;45.148;39.604;2023-02-23T01:26:53;101200.94;;;1.41;75.42
52032;BME280;38044;45.148;39.604;2023-02-23T01:29:19;101202.91;;;1.52;75.64
52032;BME280;38044;45.148;39.604;2023-02-23T01:31:47;101137.81;;;1.06;75.46
52032;BME280;38044;45.148;39.604;2023-02-23T01:34:15;101206.00;;;1.43;75.79
52032;BME280;38044;45.148;39.604;2023-02-23T01:36:43;101223.50;;;1.50;76.09
52032;BME280;38044;45.148;39.604;2023-02-23T01:39:17;101223.88;;;1.54;76.06
52032;BME280;38044;45.148;39.604;2023-02-23T01:41:44;101224.19;;;1.39;76.20
52032;BME280;38044;45.148;39.604;2023-02-23T01:46:44;101070.94;;;0.48;76.13
52032;BME280;38044;45.148;39.604;2023-02-23T01:49:13;101218.28;;;1.37;76.32
52032;BME280;38044;45.148;39.604;2023-02-23T01:51:54;101229.28;;;1.41;76.26
52032;BME280;38044;45.148;39.604;2023-02-23T01:54:29;101103.44;;;0.61;76.46
52032;BME280;38044;45.148;39.604;2023-02-23T01:56:58;101239.47;;;1.37;76.50
52032;BME280;38044;45.148;39.604;2023-02-23T01:59:32;101205.31;;;1.29;76.38
52032;BME280;38044;45.148;39.604;2023-02-23T02:01:59;101255.78;;;1.41;76.15
52032;BME280;38044;45.148;39.604;2023-02-23T02:04:26;101264.34;;;1.36;76.54
52032;BME280;38044;45.148;39.604;2023-02-23T02:06:53;101195.88;;;1.01;76.59
52032;BME280;38044;45.148;39.604;2023-02-23T02:09:22;101229.41;;;1.21;76.66
52032;BME280;38044;45.148;39.604;2023-02-23T02:11:52;101246.28;;;1.26;76.55
52032;BME280;38044;45.148;39.604;2023-02-23T02:14:26;101238.34;;;1.20;76.81
52032;BME280;38044;45.148;39.604;2023-02-23T02:17:09;101268.88;;;1.29;76.94
52032;BME280;38044;45.148;39.604;2023-02-23T02:25:18;101273.78;;;1.25;77.17
52032;BME280;38044;45.148;39.604;2023-02-23T02:36:54;101108.00;;;-0.31;77.70
52032;BME280;38044;45.148;39.604;2023-02-23T02:42:26;101248.44;;;0.33;74.44
52032;BME280;38044;45.148;39.604;2023-02-23T02:45:16;101295.56;;;0.62;73.27
52032;BME280;38044;45.148;39.604;2023-02-23T02:48:29;101296.19;;;0.51;72.96
52032;BME280;38044;45.148;39.604;2023-02-23T02:51:03;101309.25;;;0.46;73.24
52032;BME280;38044;45.148;39.604;2023-02-23T02:56:23;101309.06;;;0.28;73.20
52032;BME280;38044;45.148;39.604;2023-02-23T02:58:52;101128.13;;;-0.83;72.68
52032;BME280;38044;45.148;39.604;2023-02-23T03:01:19;101303.34;;;0.11;72.47
52032;BME280;38044;45.148;39.604;2023-02-23T03:04:19;101290.75;;;0.06;73.27
52032;BME280;38044;45.148;39.604;2023-02-23T03:07:39;101306.63;;;0.06;73.06
52032;BME280;38044;45.148;39.604;2023-02-23T03:10:40;101186.97;;;-0.89;73.37
52032;BME280;38044;45.148;39.604;2023-02-23T03:13:45;101287.47;;;-0.36;74.31
52032;BME280;38044;45.148;39.604;2023-02-23T03:17:01;101292.56;;;-0.34;74.59
52032;BME280;38044;45.148;39.604;2023-02-23T03:24:00;101171.88;;;-1.22;74.31
52032;BME280;38044;45.148;39.604;2023-02-23T03:26:38;101352.69;;;-0.36;74.57
52032;BME280;38044;45.148;39.604;2023-02-23T03:32:34;101230.63;;;-1.00;73.61
52032;BME280;38044;45.148;39.604;2023-02-23T03:35:26;101177.06;;;-1.48;73.03
52032;BME280;38044;45.148;39.604;2023-02-23T03:38:28;101177.88;;;-1.41;71.94
52032;BME280;38044;45.148;39.604;2023-02-23T03:41:17;101349.97;;;-0.63;71.27
52032;BME280;38044;45.148;39.604;2023-02-23T03:44:12;101349.53;;;-0.66;70.47
52032;BME280;38044;45.148;39.604;2023-02-23T03:46:59;101142.25;;;-2.07;69.68
52032;BME280;38044;45.148;39.604;2023-02-23T03:49:46;101339.31;;;-0.83;69.76
52032;BME280;38044;45.148;39.604;2023-02-23T03:52:41;101323.44;;;-0.89;69.06
52032;BME280;38044;45.148;39.604;2023-02-23T03:55:32;101308.69;;;-1.19;68.49
52032;BME280;38044;45.148;39.604;2023-02-23T03:58:26;101366.88;;;-0.92;68.08
52032;BME280;38044;45.148;39.604;2023-02-23T04:01:15;101368.06;;;-0.95;68.09
52032;BME280;38044;45.148;39.604;2023-02-23T04:04:02;101370.28;;;-0.98;67.91
52032;BME280;38044;45.148;39.604;2023-02-23T04:06:48;101370.91;;;-0.96;68.08
52032;BME280;38044;45.148;39.604;2023-02-23T04:09:33;101341.56;;;-1.15;67.98
52032;BME280;38044;45.148;39.604;2023-02-23T04:12:28;101374.63;;;-0.84;68.05
52032;BME280;38044;45.148;39.604;2023-02-23T04:15:20;101365.25;;;-0.93;67.29
52032;BME280;38044;45.148;39.604;2023-02-23T04:17:48;101225.09;;;-1.88;65.97
52032;BME280;38044;45.148;39.604;2023-02-23T04:20:14;101341.13;;;-1.25;66.44
52032;BME280;38044;45.148;39.604;2023-02-23T04:22:43;101357.41;;;-1.15;66.51
52032;BME280;38044;45.148;39.604;2023-02-23T04:25:14;101229.81;;;-2.05;65.32
52032;BME280;38044;45.148;39.604;2023-02-23T04:27:44;101394.34;;;-1.15;65.67
52032;BME280;38044;45.148;39.604;2023-02-23T04:30:11;101363.31;;;-1.41;65.59
52032;BME280;38044;45.148;39.604;2023-02-23T04:32:37;101384.25;;;-1.39;65.42
52032;BME280;38044;45.148;39.604;2023-02-23T04:35:03;101413.72;;;-1.29;65.64
52032;BME280;38044;45.148;39.604;2023-02-23T04:37:29;101286.59;;;-2.02;66.09
52032;BME280;38044;45.148;39.604;2023-02-23T04:39:54;101335.81;;;-1.81;66.77
52032;BME280;38044;45.148;39.604;2023-02-23T04:42:20;101424.22;;;-1.36;66.51
52032;BME280;38044;45.148;39.604;2023-02-23T04:44:47;101443.88;;;-1.17;66.82
52032;BME280;38044;45.148;39.604;2023-02-23T04:47:14;101399.47;;;-1.34;66.54
52032;BME280;38044;45.148;39.604;2023-02-23T04:49:41;101246.56;;;-2.40;66.97
52032;BME280;38044;45.148;39.604;2023-02-23T04:52:07;101437.63;;;-1.37;66.63
52032;BME280;38044;45.148;39.604;2023-02-23T04:54:37;101430.22;;;-1.48;67.03
52032;BME280;38044;45.148;39.604;2023-02-23T04:57:03;101452.22;;;-1.34;67.00
52032;BME280;38044;45.148;39.604;2023-02-23T04:59:29;101421.00;;;-1.59;66.87
52032;BME280;38044;45.148;39.604;2023-02-23T05:01:55;101468.66;;;-1.39;67.29
52032;BME280;38044;45.148;39.604;2023-02-23T05:04:21;101457.78;;;-1.51;67.50
52032;BME280;38044;45.148;39.604;2023-02-23T05:06:47;101442.25;;;-1.61;66.87
52032;BME280;38044;45.148;39.604;2023-02-23T05:09:13;101363.56;;;-2.28;66.78
52032;BME280;38044;45.148;39.604;2023-02-23T05:11:39;101488.47;;;-1.43;66.37
52032;BME280;38044;45.148;39.604;2023-02-23T05:14:05;101500.41;;;-1.47;66.10
52032;BME280;38044;45.148;39.604;2023-02-23T05:16:32;101506.50;;;-1.68;66.55
52032;BME280;38044;45.148;39.604;2023-02-23T05:18:59;101514.63;;;-1.48;66.96
52032;BME280;38044;45.148;39.604;2023-02-23T05:21:24;101505.63;;;-1.54;66.63
52032;BME280;38044;45.148;39.604;2023-02-23T05:23:50;101515.09;;;-1.38;66.85
52032;BME280;38044;45.148;39.604;2023-02-23T05:26:16;101501.22;;;-1.47;67.41
52032;BME280;38044;45.148;39.604;2023-02-23T05:28:43;101483.19;;;-1.43;67.93
52032;BME280;38044;45.148;39.604;2023-02-23T05:31:11;101478.75;;;-1.43;68.04
52032;BME280;38044;45.148;39.604;2023-02-23T05:33:37;101510.09;;;-1.33;67.73
52032;BME280;38044;45.148;39.604;2023-02-23T05:36:14;101530.31;;;-1.40;69.15
52032;BME280;38044;45.148;39.604;2023-02-23T05:38:41;101541.75;;;-1.54;69.30
52032;BME280;38044;45.148;39.604;2023-02-23T05:41:12;101539.28;;;-1.56;69.44
52032;BME280;38044;45.148;39.604;2023-02-23T05:43:38;101404.28;;;-2.45;69.88
52032;BME280;38044;45.148;39.604;2023-02-23T05:48:32;101549.38;;;-1.60;69.48
52032;BME280;38044;45.148;39.604;2023-02-23T05:51:07;101549.88;;;-1.49;69.17
52032;BME280;38044;45.148;39.604;2023-02-23T05:53:34;101559.13;;;-1.60;69.09
52032;BME280;38044;45.148;39.604;2023-02-23T05:56:04;101539.50;;;-1.72;69.55
52032;BME280;38044;45.148;39.604;2023-02-23T05:58:32;101555.91;;;-1.55;68.93
52032;BME280;38044;45.148;39.604;2023-02-23T06:00:58;101542.41;;;-1.67;68.89
52032;BME280;38044;45.148;39.604;2023-02-23T06:03:24;101526.88;;;-1.77;68.65
52032;BME280;38044;45.148;39.604;2023-02-23T06:05:55;101533.41;;;-1.73;69.09
52032;BME280;38044;45.148;39.604;2023-02-23T06:08:22;101518.88;;;-1.69;68.44
52032;BME280;38044;45.148;39.604;2023-02-23T06:10:49;101557.31;;;-1.38;67.61
52032;BME280;38044;45.148;39.604;2023-02-23T06:13:15;101438.69;;;-1.96;67.34
52032;BME280;38044;45.148;39.604;2023-02-23T06:15:42;101547.00;;;-0.90;66.81
52032;BME280;38044;45.148;39.604;2023-02-23T06:18:08;101434.63;;;-1.55;66.63
52032;BME280;38044;45.148;39.604;2023-02-23T06:20:34;101581.91;;;-0.66;67.03
52032;BME280;38044;45.148;39.604;2023-02-23T06:23:00;101538.28;;;-0.62;66.74
52032;BME280;38044;45.148;39.604;2023-02-23T06:25:26;101582.97;;;-0.33;65.51
52032;BME280;38044;45.148;39.604;2023-02-23T06:27:52;101579.09;;;-0.37;65.04
52032;BME280;38044;45.148;39.604;2023-02-23T06:30:19;101575.41;;;-0.71;65.44
52032;BME280;38044;45.148;39.604;2023-02-23T06:32:45;101575.53;;;-0.79;65.99
52032;BME280;38044;45.148;39.604;2023-02-23T06:35:11;101552.06;;;-1.17;67.09
52032;BME280;38044;45.148;39.604;2023-02-23T06:37:37;101304.75;;;-2.86;66.98
52032;BME280;38044;45.148;39.604;2023-02-23T06:40:03;101460.28;;;-2.22;67.39
52032;BME280;38044;45.148;39.604;2023-02-23T06:42:30;101592.69;;;-1.32;67.86
52032;BME280;38044;45.148;39.604;2023-02-23T06:44:56;101562.97;;;-1.41;66.87
52032;BME280;38044;45.148;39.604;2023-02-23T06:47:21;101494.41;;;-1.77;66.45
52032;BME280;38044;45.148;39.604;2023-02-23T06:49:47;101601.38;;;-1.17;65.46
52032;BME280;38044;45.148;39.604;2023-02-23T06:52:14;101572.69;;;-1.42;65.88
52032;BME280;38044;45.148;39.604;2023-02-23T06:54:40;101535.63;;;-1.55;66.00
52032;BME280;38044;45.148;39.604;2023-02-23T06:57:09;101607.09;;;-1.14;65.63
52032;BME280;38044;45.148;39.604;2023-02-23T06:59:35;101614.09;;;-1.21;65.43
52032;BME280;38044;45.148;39.604;2023-02-23T07:02:02;101617.66;;;-1.14;65.41
52032;BME280;38044;45.148;39.604;2023-02-23T07:04:31;101585.97;;;-1.14;64.77
52032;BME280;38044;45.148;39.604;2023-02-23T07:06:57;101635.53;;;-1.09;64.27
52032;BME280;38044;45.148;39.604;2023-02-23T07:09:23;101597.53;;;-1.15;63.98
52032;BME280;38044;45.148;39.604;2023-02-23T07:11:48;101608.66;;;-1.19;62.31
52032;BME280;38044;45.148;39.604;2023-02-23T07:14:14;101599.47;;;-1.23;62.00
52032;BME280;38044;45.148;39.604;2023-02-23T07:16:41;101440.34;;;-2.10;61.30
52032;BME280;38044;45.148;39.604;2023-02-23T07:19:07;101629.28;;;-0.86;61.32
52032;BME280;38044;45.148;39.604;2023-02-23T07:21:33;101616.00;;;-0.72;61.01
52032;BME280;38044;45.148;39.604;2023-02-23T07:24:00;101586.38;;;-0.67;60.77
52032;BME280;38044;45.148;39.604;2023-02-23T07:26:29;101501.53;;;-1.14;59.87
52032;BME280;38044;45.148;39.604;2023-02-23T07:28:55;101564.78;;;-0.77;59.46
52032;BME280;38044;45.148;39.604;2023-02-23T07:31:21;101638.41;;;-0.11;59.08
52032;BME280;38044;45.148;39.604;2023-02-23T07:33:47;101628.28;;;-0.01;57.91
52032;BME280;38044;45.148;39.604;2023-02-23T07:36:13;101587.53;;;-0.20;57.87
52032;BME280;38044;45.148;39.604;2023-02-23T07:38:38;101636.22;;;0.34;57.77
52032;BME280;38044;45.148;39.604;2023-02-23T07:41:05;101637.91;;;0.48;57.77
52032;BME280;38044;45.148;39.604;2023-02-23T07:43:30;101591.41;;;0.26;57.87
52032;BME280;38044;45.148;39.604;2023-02-23T07:46:00;101631.22;;;0.52;57.26
52032;BME280;38044;45.148;39.604;2023-02-23T07:48:26;101617.94;;;0.45;56.03
52032;BME280;38044;45.148;39.604;2023-02-23T07:50:52;101634.13;;;0.71;55.70
52032;BME280;38044;45.148;39.604;2023-02-23T07:53:18;101489.47;;;-0.32;55.59
52032;BME280;38044;45.148;39.604;2023-02-23T07:55:44;101496.44;;;-0.17;54.17
52032;BME280;38044;45.148;39.604;2023-02-23T07:58:10;101594.69;;;0.28;54.08
52032;BME280;38044;45.148;39.604;2023-02-23T08:00:38;101478.16;;;-0.60;54.99
52032;BME280;38044;45.148;39.604;2023-02-23T08:03:05;101648.59;;;0.27;55.63
52032;BME280;38044;45.148;39.604;2023-02-23T08:05:31;101516.78;;;-0.59;56.01
52032;BME280;38044;45.148;39.604;2023-02-23T08:07:58;101644.09;;;0.20;55.63
52032;BME280;38044;45.148;39.604;2023-02-23T08:10:24;101466.56;;;-0.94;55.86
52032;BME280;38044;45.148;39.604;2023-02-23T08:12:50;101651.88;;;0.29;55.11
52032;BME280;38044;45.148;39.604;2023-02-23T08:15:16;101476.59;;;-0.83;54.22
52032;BME280;38044;45.148;39.604;2023-02-23T08:17:42;101575.34;;;-0.14;55.09
52032;BME280;38044;45.148;39.604;2023-02-23T08:20:09;101675.72;;;0.42;54.38
52032;BME280;38044;45.148;39.604;2023-02-23T08:22:35;101648.47;;;0.48;54.56
52032;BME280;38044;45.148;39.604;2023-02-23T08:25:01;101528.13;;;-0.31;54.44
52032;BME280;38044;45.148;39.604;2023-02-23T08:27:33;101519.56;;;-0.33;53.83
52032;BME280;38044;45.148;39.604;2023-02-23T08:29:59;101617.13;;;0.45;54.27
52032;BME280;38044;45.148;39.604;2023-02-23T08:32:29;101615.56;;;0.57;53.64
52032;BME280;38044;45.148;39.604;2023-02-23T08:34:59;101682.22;;;0.94;53.33
52032;BME280;38044;45.148;39.604;2023-02-23T08:37:27;101638.84;;;0.82;53.29
52032;BME280;38044;45.148;39.604;2023-02-23T08:39:54;101671.47;;;1.02;52.81
52032;BME280;38044;45.148;39.604;2023-02-23T08:42:20;101673.13;;;1.03;52.50
52032;BME280;38044;45.148;39.604;2023-02-23T08:44:46;101664.03;;;0.64;52.74
52032;BME280;38044;45.148;39.604;2023-02-23T08:47:14;101550.25;;;0.10;52.52
52032;BME280;38044;45.148;39.604;2023-02-23T08:49:48;101675.19;;;1.15;52.96
52032;BME280;38044;45.148;39.604;2023-02-23T08:52:15;101567.66;;;0.39;52.16
52032;BME280;38044;45.148;39.604;2023-02-23T08:54:41;101675.81;;;1.23;52.73
52032;BME280;38044;45.148;39.604;2023-02-23T08:57:06;101568.31;;;0.54;52.91
52032;BME280;38044;45.148;39.604;2023-02-23T08:59:32;101624.59;;;0.96;51.55
52032;BME280;38044;45.148;39.604;2023-02-23T09:01:58;101656.84;;;1.40;51.91
52032;BME280;38044;45.148;39.604;2023-02-23T09:04:24;101688.66;;;1.73;50.61
52032;BME280;38044;45.148;39.604;2023-02-23T09:06:50;101654.41;;;1.25;50.68
52032;BME280;38044;45.148;39.604;2023-02-23T09:09:16;101671.69;;;2.14;50.43
52032;BME280;38044;45.148;39.604;2023-02-23T09:11:42;101682.63;;;2.96;48.45
52032;BME280;38044;45.148;39.604;2023-02-23T09:14:08;101549.28;;;3.12;48.05
52032;BME280;38044;45.148;39.604;2023-02-23T09:16:35;101695.47;;;4.49;47.08
52032;BME280;38044;45.148;39.604;2023-02-23T09:19:02;101621.13;;;3.49;46.60
52032;BME280;38044;45.148;39.604;2023-02-23T09:21:28;101685.34;;;3.21;48.12
52032;BME280;38044;45.148;39.604;2023-02-23T09:23:55;101701.47;;;2.87;49.54
52032;BME280;38044;45.148;39.604;2023-02-23T09:26:22;101553.28;;;1.54;49.28
52032;BME280;38044;45.148;39.604;2023-02-23T09:28:49;101695.59;;;1.94;50.20
52032;BME280;38044;45.148;39.604;2023-02-23T09:31:18;101697.66;;;1.72;50.94
52032;BME280;38044;45.148;39.604;2023-02-23T09:33:44;101656.44;;;1.63;50.54
52032;BME280;38044;45.148;39.604;2023-02-23T09:36:16;101658.84;;;1.97;50.40
52032;BME280;38044;45.148;39.604;2023-02-23T09:38:44;101586.31;;;1.58;50.26
52032;BME280;38044;45.148;39.604;2023-02-23T09:41:42;101699.69;;;2.68;50.55
52032;BME280;38044;45.148;39.604;2023-02-23T09:49:38;101703.22;;;3.38;49.82
52032;BME280;38044;45.148;39.604;2023-02-23T09:52:21;101649.94;;;3.52;47.50
52032;BME280;38044;45.148;39.604;2023-02-23T09:54:48;101671.03;;;3.22;49.27
52032;BME280;38044;45.148;39.604;2023-02-23T09:57:21;101539.78;;;1.89;48.95
52032;BME280;38044;45.148;39.604;2023-02-23T09:59:48;101689.56;;;2.97;49.53
52032;BME280;38044;45.148;39.604;2023-02-23T10:02:50;101525.56;;;2.85;48.84
52032;BME280;38044;45.148;39.604;2023-02-23T10:05:22;101706.28;;;4.36;47.31
52032;BME280;38044;45.148;39.604;2023-02-23T10:08:06;101670.19;;;4.88;47.03
52032;BME280;38044;45.148;39.604;2023-02-23T10:21:56;101697.81;;;4.20;46.72
52032;BME280;38044;45.148;39.604;2023-02-23T10:24:31;101687.88;;;4.09;47.42
52032;BME280;38044;45.148;39.604;2023-02-23T10:27:06;101630.09;;;4.16;46.96
52032;BME280;38044;45.148;39.604;2023-02-23T10:29:55;101696.22;;;4.86;45.66
52032;BME280;38044;45.148;39.604;2023-02-23T10:32:44;101697.94;;;4.81;46.99
52032;BME280;38044;45.148;39.604;2023-02-23T10:35:14;101705.94;;;4.81;45.74
52032;BME280;38044;45.148;39.604;2023-02-23T10:37:40;101705.22;;;4.18;45.93
52032;BME280;38044;45.148;39.604;2023-02-23T10:40:12;101708.44;;;3.77;46.94
52032;BME280;38044;45.148;39.604;2023-02-23T10:42:38;101572.22;;;2.36;47.40
52032;BME280;38044;45.148;39.604;2023-02-23T10:45:11;101661.59;;;2.42;48.21
52032;BME280;38044;45.148;39.604;2023-02-23T10:47:43;101698.78;;;2.36;49.12
52032;BME280;38044;45.148;39.604;2023-02-23T10:50:10;101693.16;;;2.70;50.41
52032;BME280;38044;45.148;39.604;2023-02-23T10:52:44;101695.63;;;3.10;48.68
52032;BME280;38044;45.148;39.604;2023-02-23T10:55:27;101691.72;;;3.45;48.95
52032;BME280;38044;45.148;39.604;2023-02-23T10:58:18;101724.50;;;3.89;48.72
52032;BME280;38044;45.148;39.604;2023-02-23T11:00:56;101634.00;;;3.27;46.85
52032;BME280;38044;45.148;39.604;2023-02-23T11:03:33;101669.34;;;3.27;48.20
52032;BME280;38044;45.148;39.604;2023-02-23T11:06:01;101698.13;;;2.99;47.66
52032;BME280;38044;45.148;39.604;2023-02-23T11:08:30;101694.19;;;2.63;48.78
52032;BME280;38044;45.148;39.604;2023-02-23T11:13:44;101711.59;;;2.59;49.70
52032;BME280;38044;45.148;39.604;2023-02-23T11:16:30;101665.09;;;2.36;49.48
52032;BME280;38044;45.148;39.604;2023-02-23T11:19:03;101700.06;;;3.16;49.34
52032;BME280;38044;45.148;39.604;2023-02-23T11:21:32;101690.00;;;3.57;48.63
52032;BME280;38044;45.148;39.604;2023-02-23T11:26:59;101536.56;;;3.39;47.31
52032;BME280;38044;45.148;39.604;2023-02-23T11:29:35;101571.25;;;3.69;47.24
52032;BME280;38044;45.148;39.604;2023-02-23T11:32:18;101718.25;;;4.45;46.57
52032;BME280;38044;45.148;39.604;2023-02-23T11:34:46;101607.88;;;2.92;47.61
52032;BME280;38044;45.148;39.604;2023-02-23T11:42:30;101567.09;;;1.83;50.19
52032;BME280;38044;45.148;39.604;2023-02-23T11:45:15;101686.41;;;2.68;48.41
52032;BME280;38044;45.148;39.604;2023-02-23T11:47:46;101721.84;;;3.32;49.54
52032;BME280;38044;45.148;39.604;2023-02-23T11:52:49;101660.19;;;3.48;47.54
52032;BME280;38044;45.148;39.604;2023-02-23T11:55:17;101719.78;;;4.16;46.77
52032;BME280;38044;45.148;39.604;2023-02-23T11:57:44;101704.78;;;4.21;46.53
52032;BME280;38044;45.148;39.604;2023-02-23T12:00:34;101734.59;;;4.67;46.20
52032;BME280;38044;45.148;39.604;2023-02-23T12:03:00;101699.63;;;4.26;46.46
52032;BME280;38044;45.148;39.604;2023-02-23T12:05:31;101618.38;;;3.80;46.56
52032;BME280;38044;45.148;39.604;2023-02-23T12:08:18;101712.13;;;4.44;44.98
52032;BME280;38044;45.148;39.604;2023-02-23T12:10:50;101744.19;;;4.13;45.39
52032;BME280;38044;45.148;39.604;2023-02-23T12:13:34;101748.53;;;4.25;46.54
52032;BME280;38044;45.148;39.604;2023-02-23T12:27:09;101745.38;;;3.35;46.26
52032;BME280;38044;45.148;39.604;2023-02-23T12:33:12;101741.19;;;2.69;48.21
52032;BME280;38044;45.148;39.604;2023-02-23T12:35:59;101770.75;;;2.79;47.67
52032;BME280;38044;45.148;39.604;2023-02-23T12:38:40;101740.78;;;2.59;47.95
52032;BME280;38044;45.148;39.604;2023-02-23T12:41:13;101774.47;;;2.65;47.59
52032;BME280;38044;45.148;39.604;2023-02-23T12:43:52;101770.19;;;2.57;47.29
52032;BME280;38044;45.148;39.604;2023-02-23T12:46:34;101778.34;;;2.69;47.90
52032;BME280;38044;45.148;39.604;2023-02-23T12:49:10;101782.00;;;2.68;47.92
52032;BME280;38044;45.148;39.604;2023-02-23T12:51:43;101742.88;;;2.37;46.91
52032;BME280;38044;45.148;39.604;2023-02-23T12:54:14;101789.78;;;2.56;47.16
52032;BME280;38044;45.148;39.604;2023-02-23T12:57:00;101789.22;;;2.34;45.89
52032;BME280;38044;45.148;39.604;2023-02-23T13:02:05;101801.00;;;1.58;46.46
52032;BME280;38044;45.148;39.604;2023-02-23T13:04:59;101798.13;;;1.53;47.01
52032;BME280;38044;45.148;39.604;2023-02-23T13:10:24;101819.66;;;1.24;47.71
52032;BME280;38044;45.148;39.604;2023-02-23T13:13:17;101809.47;;;1.21;47.18
52032;BME280;38044;45.148;39.604;2023-02-23T13:18:38;101819.03;;;1.22;47.61
52032;BME280;38044;45.148;39.604;2023-02-23T13:24:04;101815.63;;;0.86;48.23
52032;BME280;38044;45.148;39.604;2023-02-23T13:29:37;101830.50;;;0.59;49.41
52032;BME280;38044;45.148;39.604;2023-02-23T13:32:12;101790.88;;;0.38;49.17
52032;BME280;38044;45.148;39.604;2023-02-23T13:35:06;101820.78;;;0.66;49.52
52032;BME280;38044;45.148;39.604;2023-02-23T13:42:54;101799.69;;;-0.05;50.87
52032;BME280;38044;45.148;39.604;2023-02-23T13:45:33;101847.97;;;0.04;50.96
52032;BME280;38044;45.148;39.604;2023-02-23T13:51:05;101847.34;;;-0.19;50.74
52032;BME280;38044;45.148;39.604;2023-02-23T13:53:36;101849.69;;;-0.31;51.41
52032;BME280;38044;45.148;39.604;2023-02-23T13:56:09;101827.09;;;-0.34;51.14
52032;BME280;38044;45.148;39.604;2023-02-23T13:58:46;101677.38;;;-1.27;51.41
52032;BME280;38044;45.148;39.604;2023-02-23T14:01:20;101841.53;;;-0.30;51.12
52032;BME280;38044;45.148;39.604;2023-02-23T14:03:52;101804.34;;;-0.50;50.93
52032;BME280;38044;45.148;39.604;2023-02-23T14:06:21;101661.31;;;-1.62;51.60
52032;BME280;38044;45.148;39.604;2023-02-23T14:08:54;101856.44;;;-0.43;51.94
52032;BME280;38044;45.148;39.604;2023-02-23T14:11:38;101733.19;;;-1.09;52.22
52032;BME280;38044;45.148;39.604;2023-02-23T14:14:14;101838.34;;;-0.61;52.82
52032;BME280;38044;45.148;39.604;2023-02-23T14:16:42;101865.84;;;-0.56;52.46
52032;BME280;38044;45.148;39.604;2023-02-23T14:19:29;101828.72;;;-0.84;53.24
52032;BME280;38044;45.148;39.604;2023-02-23T14:22:06;101836.09;;;-0.79;52.51
52032;BME280;38044;45.148;39.604;2023-02-23T14:24:34;101827.38;;;-0.95;52.68
52032;BME280;38044;45.148;39.604;2023-02-23T14:29:40;101691.66;;;-1.96;52.38
52032;BME280;38044;45.148;39.604;2023-02-23T14:34:53;101886.97;;;-1.00;54.16
52032;BME280;38044;45.148;39.604;2023-02-23T14:40:03;101886.81;;;-1.14;54.10
52032;BME280;38044;45.148;39.604;2023-02-23T14:42:30;101900.91;;;-1.21;54.37
52032;BME280;38044;45.148;39.604;2023-02-23T14:45:03;101897.72;;;-1.31;54.81
52032;BME280;38044;45.148;39.604;2023-02-23T14:47:40;101741.38;;;-2.31;55.03
52032;BME280;38044;45.148;39.604;2023-02-23T14:50:09;101907.41;;;-1.47;55.18
52032;BME280;38044;45.148;39.604;2023-02-23T14:52:42;101895.59;;;-1.74;56.25
52032;BME280;38044;45.148;39.604;2023-02-23T14:57:41;101876.59;;;-1.92;56.57
52032;BME280;38044;45.148;39.604;2023-02-23T15:00:29;101908.13;;;-1.76;56.34